Cushman Dam, Washington
Current Conditions -  °F | °C
As of 10:17 AM on Thursday 30 Oct 2014 (Local Time) from KSHN Reporting Station
Overcast Overcast  
Wind Chill: 54°   Ceiling: 4200
Heat Index: 54°   Visibility: 10mi
Dew Point: 52°   Wind: 0mph
Humidity: 93%   Direction: NA
Pressure: 29.83"   Gusts: NA
Location:  47.4532°N, 123.173°W
Report Text: KSHN 301717Z AUTO 00000KT 10SM FEW003 OVC042 12/11 A2983 RMK AO2 T01220111 TSNO
Loading
Personal Weather Stations






























Interactive Weather Map
Tropical Storm Tracking
New forecast layout! Learn more

10-Day Weather Forecast

Advertisements
Track Severe Weather on mobile